createdAt,value
2018-06-24T00:00:04.536Z,91.68
2018-06-24T00:00:45.082Z,91.78
2018-06-24T00:01:25.635Z,91.59
2018-06-24T00:02:06.207Z,91.59
2018-06-24T00:02:46.785Z,91.78
2018-06-24T00:03:27.375Z,91.68
2018-06-24T00:04:07.934Z,91.3
2018-06-24T00:04:48.503Z,91.59
2018-06-24T00:05:29.080Z,91.88
2018-06-24T00:06:09.606Z,91.59
2018-06-24T00:06:50.181Z,91.68
2018-06-24T00:07:30.730Z,91.49
2018-06-24T00:08:11.291Z,91.68
2018-06-24T00:08:51.881Z,91.68
2018-06-24T00:09:32.427Z,91.68
2018-06-24T00:10:12.986Z,91.78
2018-06-24T00:10:53.528Z,91.97
2018-06-24T00:11:34.080Z,91.39
2018-06-24T00:12:14.641Z,91.97
2018-06-24T00:12:55.197Z,91.39
2018-06-24T00:13:35.771Z,91.97
2018-06-24T00:14:16.405Z,91.88
2018-06-24T00:14:56.897Z,91.78
2018-06-24T00:15:37.510Z,91.49
2018-06-24T00:16:18.069Z,91.49
2018-06-24T00:16:58.630Z,91.49
2018-06-24T00:17:39.181Z,91.88
2018-06-24T00:18:19.745Z,91.68
2018-06-24T00:19:00.323Z,91.88
2018-06-24T00:19:40.891Z,91.97
2018-06-24T00:20:21.459Z,91.68
2018-06-24T00:21:02.010Z,92.07
2018-06-24T00:21:42.562Z,91.39
2018-06-24T00:22:23.119Z,91.88
2018-06-24T00:23:03.679Z,91.68
2018-06-24T00:23:44.240Z,91.39
2018-06-24T00:24:24.822Z,91.49
2018-06-24T00:25:05.398Z,91.39
2018-06-24T00:25:45.959Z,91.88
2018-06-24T00:26:26.526Z,91.59
2018-06-24T00:27:07.089Z,91.78
2018-06-24T00:27:47.656Z,91.68
2018-06-24T00:28:28.232Z,91.68
2018-06-24T00:29:09.012Z,91.68
2018-06-24T00:29:49.754Z,91.49
2018-06-24T00:30:30.445Z,91.49
2018-06-24T00:31:10.929Z,92.07
2018-06-24T00:31:51.531Z,91.59
2018-06-24T00:32:32.081Z,91.59
2018-06-24T00:33:12.726Z,91.97
2018-06-24T00:33:53.443Z,92.07
2018-06-24T00:34:34.012Z,91.88
2018-06-24T00:35:14.604Z,92.07
2018-06-24T00:35:55.235Z,91.93
2018-06-24T00:36:35.992Z,91.93
2018-06-24T00:37:16.577Z,92.16
2018-06-24T00:37:57.126Z,92.21
2018-06-24T00:38:37.667Z,92.02
2018-06-24T00:39:18.340Z,92.25
2018-06-24T00:39:58.892Z,91.59
2018-06-24T00:40:39.451Z,91.93
2018-06-24T00:41:20.050Z,92.02
2018-06-24T00:42:00.615Z,92.07
2018-06-24T00:42:41.189Z,91.97
2018-06-24T00:43:21.745Z,92.07
2018-06-24T00:44:02.309Z,91.88
2018-06-24T00:44:42.878Z,91.78
2018-06-24T00:45:23.427Z,92.07
2018-06-24T00:46:03.977Z,91.97
2018-06-24T00:46:44.574Z,91.88
2018-06-24T00:47:25.113Z,91.97
2018-06-24T00:48:05.664Z,92.25
2018-06-24T00:48:46.234Z,92.54
2018-06-24T00:49:26.794Z,92.45
2018-06-24T00:50:07.364Z,92.74
2018-06-24T00:50:47.922Z,92.07
2018-06-24T00:51:28.488Z,92.35
2018-06-24T00:52:09.059Z,91.97
2018-06-24T00:52:49.632Z,92.54
2018-06-24T00:53:30.193Z,92.16
2018-06-24T00:54:10.765Z,92.64
2018-06-24T00:54:51.347Z,92.64
2018-06-24T00:55:31.926Z,92.74
2018-06-24T00:56:12.500Z,91.88
2018-06-24T00:56:53.080Z,92.07
2018-06-24T00:57:33.626Z,92.07
2018-06-24T00:58:14.181Z,91.68
2018-06-24T00:58:54.732Z,91.97
2018-06-24T00:59:35.304Z,91.78
2018-06-24T01:00:15.922Z,92.16
2018-06-24T01:00:56.478Z,91.97
2018-06-24T01:01:37.036Z,91.88
2018-06-24T01:02:17.586Z,91.78
2018-06-24T01:02:58.148Z,92.16
2018-06-24T01:03:38.725Z,91.97
2018-06-24T01:04:19.278Z,91.68
2018-06-24T01:04:59.844Z,91.68
2018-06-24T01:05:40.394Z,92.07
2018-06-24T01:06:20.983Z,91.97
2018-06-24T01:07:01.542Z,92.07
2018-06-24T01:07:42.118Z,91.97
2018-06-24T01:08:22.681Z,91.68
2018-06-24T01:09:03.253Z,92.16
2018-06-24T01:09:43.802Z,92.25
2018-06-24T01:10:24.450Z,92.25
2018-06-24T01:11:05.020Z,92.25
2018-06-24T01:11:45.566Z,91.78
2018-06-24T01:12:26.124Z,92.07
2018-06-24T01:13:06.679Z,91.78
2018-06-24T01:13:47.259Z,91.88
2018-06-24T01:14:27.821Z,91.59
2018-06-24T01:15:08.385Z,91.97
2018-06-24T01:15:48.954Z,92.07
2018-06-24T01:16:29.521Z,92.25
2018-06-24T01:17:10.097Z,91.88
2018-06-24T01:17:50.676Z,91.78
2018-06-24T01:18:31.239Z,91.68
2018-06-24T01:19:11.800Z,91.93
2018-06-24T01:19:52.384Z,91.88
2018-06-24T01:20:32.951Z,91.78
2018-06-24T01:21:13.511Z,91.83
2018-06-24T01:21:54.050Z,91.59
2018-06-24T01:22:34.615Z,91.97
2018-06-24T01:23:15.172Z,92.02
2018-06-24T01:23:55.752Z,91.93
2018-06-24T01:24:36.319Z,92.02
2018-06-24T01:25:16.889Z,91.59
2018-06-24T01:25:57.444Z,92.07
2018-06-24T01:26:38.012Z,92.07
2018-06-24T01:27:18.553Z,91.74
2018-06-24T01:27:59.110Z,91.83
2018-06-24T01:28:39.665Z,92.21
2018-06-24T01:29:20.237Z,91.83
2018-06-24T01:30:00.811Z,92.11
2018-06-24T01:30:41.372Z,92.07
2018-06-24T01:31:21.929Z,91.83
2018-06-24T01:32:02.489Z,91.93
2018-06-24T01:32:43.057Z,92.11
2018-06-24T01:33:23.600Z,92.11
2018-06-24T01:34:04.164Z,92.11
2018-06-24T01:34:44.755Z,92.11
2018-06-24T01:35:25.315Z,92.11
2018-06-24T01:36:05.878Z,91.83
2018-06-24T01:36:46.425Z,91.83
2018-06-24T01:37:26.993Z,91.97
2018-06-24T01:38:07.546Z,92.5
2018-06-24T01:38:48.114Z,92.5
2018-06-24T01:39:28.668Z,92.59
2018-06-24T01:40:09.249Z,92.3
2018-06-24T01:40:49.799Z,92.4
2018-06-24T01:41:30.351Z,92.21
2018-06-24T01:42:10.928Z,92.11
2018-06-24T01:42:51.493Z,92.5
2018-06-24T01:43:32.045Z,92.5
2018-06-24T01:44:12.608Z,92.5
2018-06-24T01:44:53.177Z,92.45
2018-06-24T01:45:33.764Z,92.69
2018-06-24T01:46:14.322Z,92.5
2018-06-24T01:46:54.891Z,92.88
2018-06-24T01:47:35.450Z,92.5
2018-06-24T01:48:15.997Z,92.97
2018-06-24T01:48:56.585Z,93.26
2018-06-24T01:49:37.138Z,93.36
2018-06-24T01:50:17.697Z,93.26
2018-06-24T01:50:58.260Z,93.07
2018-06-24T01:51:38.824Z,93.26
2018-06-24T01:52:19.402Z,92.69
2018-06-24T01:52:59.987Z,92.79
2018-06-24T01:53:40.552Z,92.88
2018-06-24T01:54:21.131Z,92.59
2018-06-24T01:55:01.685Z,92.4
2018-06-24T01:55:42.244Z,92.59
2018-06-24T01:56:22.804Z,92.59
2018-06-24T01:57:03.357Z,92.4
2018-06-24T01:57:43.947Z,92.69
2018-06-24T01:58:24.517Z,92.4
2018-06-24T01:59:05.071Z,92.4
2018-06-24T01:59:45.637Z,92.4
2018-06-24T02:00:26.191Z,92.59
2018-06-24T02:01:06.761Z,92.5
2018-06-24T02:01:47.321Z,92.4
2018-06-24T02:02:27.881Z,92.59
2018-06-24T02:03:08.435Z,92.4
2018-06-24T02:03:49.003Z,92.3
2018-06-24T02:04:29.559Z,92.64
2018-06-24T02:05:10.188Z,92.11
2018-06-24T02:05:50.743Z,92.11
2018-06-24T02:06:31.309Z,92.21
2018-06-24T02:07:11.882Z,92.11
2018-06-24T02:07:52.449Z,92.69
2018-06-24T02:08:33.010Z,92.69
2018-06-24T02:09:13.588Z,92.21
2018-06-24T02:09:54.151Z,92.4
2018-06-24T02:10:34.730Z,92.4
2018-06-24T02:11:15.280Z,92.4
2018-06-24T02:11:55.861Z,92.4
2018-06-24T02:12:36.410Z,92.5
2018-06-24T02:13:17.023Z,92.69
2018-06-24T02:13:57.591Z,92.5
2018-06-24T02:14:38.159Z,92.74
2018-06-24T02:15:18.741Z,92.4
2018-06-24T02:15:59.304Z,92.69
2018-06-24T02:16:39.867Z,91.83
2018-06-24T02:17:20.437Z,92.21
2018-06-24T02:18:01.008Z,91.93
2018-06-24T02:18:41.571Z,92.02
2018-06-24T02:19:22.116Z,92.02
2018-06-24T02:20:02.686Z,91.74
2018-06-24T02:20:43.232Z,92.16
2018-06-24T02:21:23.808Z,92.4
2018-06-24T02:22:04.368Z,92.11
2018-06-24T02:22:44.905Z,92.3
2018-06-24T02:23:25.445Z,91.93
2018-06-24T02:24:05.992Z,91.83
2018-06-24T02:24:46.540Z,91.74
2018-06-24T02:25:27.093Z,91.74
2018-06-24T02:26:07.643Z,92.11
2018-06-24T02:26:48.209Z,91.83
2018-06-24T02:27:28.762Z,91.83
2018-06-24T02:28:09.331Z,92.02
2018-06-24T02:28:49.890Z,91.93
2018-06-24T02:29:30.452Z,92.21
2018-06-24T02:30:11.005Z,92.21
2018-06-24T02:30:51.566Z,92.3
2018-06-24T02:31:32.123Z,91.93
2018-06-24T02:32:12.683Z,91.83
2018-06-24T02:32:53.229Z,92.3
2018-06-24T02:33:33.780Z,92.3
2018-06-24T02:34:14.351Z,91.93
2018-06-24T02:34:54.923Z,92.59
2018-06-24T02:35:35.478Z,92.02
2018-06-24T02:36:16.033Z,92.69
2018-06-24T02:36:56.599Z,92.59
2018-06-24T02:37:37.155Z,92.5
2018-06-24T02:38:17.717Z,92.11
2018-06-24T02:38:58.310Z,92.5
2018-06-24T02:39:38.875Z,92.5
2018-06-24T02:40:19.418Z,92.5
2018-06-24T02:40:59.989Z,92.3
2018-06-24T02:41:40.568Z,92.59
2018-06-24T02:42:21.141Z,92.59
2018-06-24T02:43:01.695Z,92.69
2018-06-24T02:43:42.253Z,92.5
2018-06-24T02:44:22.810Z,92.69
2018-06-24T02:45:03.381Z,92.4
2018-06-24T02:45:43.946Z,92.59
2018-06-24T02:46:24.504Z,92.4
2018-06-24T02:47:05.073Z,91.93
2018-06-24T02:47:45.631Z,92.02
2018-06-24T02:48:26.191Z,92.4
2018-06-24T02:49:06.759Z,92.79
2018-06-24T02:49:47.302Z,92.59
2018-06-24T02:50:27.874Z,92.59
2018-06-24T02:51:08.448Z,92.4
2018-06-24T02:51:48.999Z,92.4
2018-06-24T02:52:29.543Z,92.5
2018-06-24T02:53:10.112Z,92.59
2018-06-24T02:53:50.666Z,92.5
2018-06-24T02:54:31.231Z,92.79
2018-06-24T02:55:11.790Z,92.59
2018-06-24T02:55:52.366Z,92.59
2018-06-24T02:56:32.933Z,92.97
2018-06-24T02:57:13.490Z,92.97
2018-06-24T02:57:54.057Z,92.69
2018-06-24T02:58:34.617Z,92.59
2018-06-24T02:59:15.212Z,92.97
2018-06-24T02:59:55.717Z,92.11
2018-06-24T03:00:36.269Z,92.4
2018-06-24T03:01:16.826Z,92.11
2018-06-24T03:01:57.395Z,93.07
2018-06-24T03:02:37.959Z,93.07
2018-06-24T03:03:18.519Z,93.07
2018-06-24T03:03:59.071Z,93.07
2018-06-24T03:04:39.621Z,93.07
2018-06-24T03:05:20.176Z,93.07
2018-06-24T03:06:00.733Z,93.07
2018-06-24T03:06:41.374Z,93.07
2018-06-24T03:07:21.941Z,92.97
2018-06-24T03:08:02.496Z,92.5
2018-06-24T03:08:43.079Z,92.69
2018-06-24T03:09:23.658Z,92.69
2018-06-24T03:10:04.217Z,92.88
2018-06-24T03:10:44.769Z,92.3
2018-06-24T03:11:25.337Z,92.11
2018-06-24T03:12:05.890Z,92.59
2018-06-24T03:12:46.440Z,92.3
2018-06-24T03:13:26.994Z,92.69
2018-06-24T03:14:07.537Z,92.4
2018-06-24T03:14:48.092Z,92.4
2018-06-24T03:15:28.646Z,92.59
2018-06-24T03:16:09.217Z,93.07
2018-06-24T03:16:49.765Z,92.88
2018-06-24T03:17:30.350Z,92.79
2018-06-24T03:18:10.919Z,92.88
2018-06-24T03:18:51.483Z,92.69
2018-06-24T03:19:32.040Z,92.5
2018-06-24T03:20:12.586Z,92.69
2018-06-24T03:20:53.141Z,92.88
2018-06-24T03:21:33.696Z,93.55
2018-06-24T03:22:14.259Z,93.26
2018-06-24T03:22:54.789Z,93.55
2018-06-24T03:23:35.334Z,93.26
2018-06-24T03:24:15.938Z,93.36
2018-06-24T03:24:56.490Z,93.36
2018-06-24T03:25:37.097Z,93.36
2018-06-24T03:26:17.659Z,93.07
2018-06-24T03:26:58.220Z,93.26
2018-06-24T03:27:38.781Z,93.36
2018-06-24T03:28:19.353Z,93.36
2018-06-24T03:28:59.902Z,93.45
2018-06-24T03:29:40.510Z,92.79
2018-06-24T03:30:21.056Z,92.97
2018-06-24T03:31:01.615Z,92.88
2018-06-24T03:31:42.166Z,92.59
2018-06-24T03:32:22.735Z,92.97
2018-06-24T03:33:03.308Z,93.07
2018-06-24T03:33:43.872Z,92.88
2018-06-24T03:34:24.449Z,92.69
2018-06-24T03:35:05.006Z,92.88
2018-06-24T03:35:45.566Z,92.69
2018-06-24T03:36:26.137Z,93.16
2018-06-24T03:37:06.710Z,93.16
2018-06-24T03:37:47.292Z,92.21
2018-06-24T03:38:27.834Z,92.21
2018-06-24T03:39:08.393Z,92.59
2018-06-24T03:39:48.953Z,92.4
2018-06-24T03:40:29.501Z,92.69
2018-06-24T03:41:10.059Z,92.3
2018-06-24T03:41:50.614Z,91.93
2018-06-24T03:42:31.212Z,91.83
2018-06-24T03:43:11.743Z,91.83
2018-06-24T03:43:52.327Z,92.11
2018-06-24T03:44:32.897Z,92.21
2018-06-24T03:45:13.445Z,92.21
2018-06-24T03:45:54.008Z,92.5
2018-06-24T03:46:34.561Z,92.5
2018-06-24T03:47:15.108Z,92.5
2018-06-24T03:47:55.678Z,92.59
2018-06-24T03:48:36.244Z,92.21
2018-06-24T03:49:16.803Z,92.4
2018-06-24T03:49:57.365Z,92.69
2018-06-24T03:50:37.965Z,92.69
2018-06-24T03:51:18.510Z,92.97
2018-06-24T03:51:59.071Z,92.79
2018-06-24T03:52:39.625Z,93.16
2018-06-24T03:53:20.165Z,92.5
2018-06-24T03:54:00.715Z,92.59
2018-06-24T03:54:41.271Z,92.4
2018-06-24T03:55:21.844Z,92.5
2018-06-24T03:56:02.396Z,92.5
2018-06-24T03:56:42.959Z,92.4
2018-06-24T03:57:23.522Z,92.5
2018-06-24T03:58:04.126Z,92.5
2018-06-24T03:58:44.653Z,92.5
2018-06-24T03:59:25.205Z,92.69
2018-06-24T04:00:05.772Z,92.69
2018-06-24T04:00:46.324Z,92.5
2018-06-24T04:01:26.877Z,92.11
2018-06-24T04:02:07.427Z,92.21
2018-06-24T04:02:47.971Z,91.93
2018-06-24T04:03:28.559Z,92.02
2018-06-24T04:04:09.068Z,91.93
2018-06-24T04:04:49.651Z,91.93
2018-06-24T04:05:30.172Z,92.21
2018-06-24T04:06:10.751Z,91.93
2018-06-24T04:06:51.362Z,92.02
2018-06-24T04:07:31.930Z,91.83
2018-06-24T04:08:12.497Z,91.74
2018-06-24T04:08:53.058Z,91.83
2018-06-24T04:09:33.626Z,91.83
2018-06-24T04:10:14.171Z,91.83
2018-06-24T04:10:54.725Z,92.11
2018-06-24T04:11:35.298Z,91.83
2018-06-24T04:12:15.865Z,92.02
2018-06-24T04:12:56.418Z,91.83
2018-06-24T04:13:36.987Z,91.83
2018-06-24T04:14:17.537Z,91.93
2018-06-24T04:14:58.086Z,91.93
2018-06-24T04:15:38.644Z,91.93
2018-06-24T04:16:19.193Z,91.83
2018-06-24T04:16:59.750Z,92.02
2018-06-24T04:17:40.367Z,91.74
2018-06-24T04:18:20.995Z,91.74
2018-06-24T04:19:01.589Z,91.74
2018-06-24T04:19:42.128Z,91.83
2018-06-24T04:20:22.703Z,92.3
2018-06-24T04:21:03.257Z,91.93
2018-06-24T04:21:43.813Z,91.83
2018-06-24T04:22:24.371Z,91.64
2018-06-24T04:23:04.923Z,91.83
2018-06-24T04:23:45.471Z,92.02
2018-06-24T04:24:26.022Z,91.93
2018-06-24T04:25:06.576Z,92.4
2018-06-24T04:25:47.175Z,92.21
2018-06-24T04:26:27.685Z,91.93
2018-06-24T04:27:08.242Z,91.64
2018-06-24T04:27:48.806Z,91.74
2018-06-24T04:28:29.387Z,92.11
2018-06-24T04:29:09.928Z,91.74
2018-06-24T04:29:50.484Z,91.64
2018-06-24T04:30:31.070Z,92.11
2018-06-24T04:31:11.605Z,91.74
2018-06-24T04:31:52.159Z,91.83
2018-06-24T04:32:32.735Z,91.74
2018-06-24T04:33:13.285Z,91.64
2018-06-24T04:33:53.811Z,91.64
2018-06-24T04:34:34.377Z,91.74
2018-06-24T04:35:14.936Z,92.11
2018-06-24T04:35:55.477Z,91.64
2018-06-24T04:36:36.036Z,91.64
2018-06-24T04:37:16.586Z,91.83
2018-06-24T04:37:57.128Z,92.02
2018-06-24T04:38:37.693Z,91.83
2018-06-24T04:39:18.232Z,92.02
2018-06-24T04:39:58.790Z,91.83
2018-06-24T04:40:39.340Z,91.83
2018-06-24T04:41:19.892Z,91.83
2018-06-24T04:42:00.435Z,92.02
2018-06-24T04:42:41.000Z,92.21
2018-06-24T04:43:21.532Z,92.21
2018-06-24T04:44:02.076Z,91.83
2018-06-24T04:44:42.620Z,92.69
2018-06-24T04:45:23.172Z,92.4
2018-06-24T04:46:03.721Z,92.5
2018-06-24T04:46:44.272Z,91.93
2018-06-24T04:47:24.823Z,92.02
2018-06-24T04:48:05.384Z,92.3
2018-06-24T04:48:45.924Z,91.54
2018-06-24T04:49:26.485Z,91.83
2018-06-24T04:50:07.029Z,91.74
2018-06-24T04:50:47.576Z,92.02
2018-06-24T04:51:28.149Z,91.93
2018-06-24T04:52:08.676Z,91.64
2018-06-24T04:52:49.230Z,91.83
2018-06-24T04:53:29.826Z,92.21
2018-06-24T04:54:10.386Z,92.02
2018-06-24T04:54:50.988Z,91.83
2018-06-24T04:55:31.537Z,91.83
2018-06-24T04:56:12.073Z,91.93
2018-06-24T04:56:52.632Z,92.11
2018-06-24T04:57:33.185Z,92.69
2018-06-24T04:58:13.740Z,92.4
2018-06-24T04:58:54.268Z,92.4
2018-06-24T04:59:34.849Z,91.74
2018-06-24T05:00:15.394Z,91.83
2018-06-24T05:00:55.942Z,91.93
2018-06-24T05:01:36.499Z,91.74
2018-06-24T05:02:17.067Z,91.83
2018-06-24T05:02:57.633Z,92.02
2018-06-24T05:03:38.194Z,92.02
2018-06-24T05:04:18.743Z,92.11
2018-06-24T05:04:59.297Z,92.21
2018-06-24T05:05:39.852Z,92.11
2018-06-24T05:06:20.429Z,92.3
2018-06-24T05:07:00.995Z,92.3
2018-06-24T05:07:41.528Z,92.69
2018-06-24T05:08:22.085Z,92.4
2018-06-24T05:09:02.641Z,92.69
2018-06-24T05:09:43.202Z,92.59
2018-06-24T05:10:23.751Z,92.5
2018-06-24T05:11:04.309Z,92.5
2018-06-24T05:11:44.869Z,92.5
2018-06-24T05:12:25.410Z,92.11
2018-06-24T05:13:05.953Z,92.3
2018-06-24T05:13:46.503Z,91.74
2018-06-24T05:14:27.056Z,92.3
2018-06-24T05:15:07.624Z,92.4
2018-06-24T05:15:48.206Z,92.5
2018-06-24T05:16:28.765Z,92.69
2018-06-24T05:17:09.302Z,92.4
2018-06-24T05:17:49.864Z,93.07
2018-06-24T05:18:30.446Z,93.07
2018-06-24T05:19:11.001Z,92.21
2018-06-24T05:19:51.547Z,92.3
2018-06-24T05:20:32.103Z,92.59
2018-06-24T05:21:12.656Z,92.59
2018-06-24T05:21:53.206Z,92.5
2018-06-24T05:22:33.769Z,92.4
2018-06-24T05:23:14.317Z,92.69
2018-06-24T05:23:54.860Z,92.21
2018-06-24T05:24:35.408Z,91.93
2018-06-24T05:25:15.957Z,91.93
2018-06-24T05:25:56.503Z,91.93
2018-06-24T05:26:37.081Z,92.11
2018-06-24T05:27:17.642Z,91.93
2018-06-24T05:27:58.173Z,92.11
2018-06-24T05:28:38.741Z,92.21
2018-06-24T05:29:19.284Z,91.83
2018-06-24T05:29:59.831Z,91.64
2018-06-24T05:30:40.419Z,91.93
2018-06-24T05:31:20.977Z,91.35
2018-06-24T05:32:01.551Z,91.93
2018-06-24T05:32:42.109Z,91.83
2018-06-24T05:33:22.660Z,91.83
2018-06-24T05:34:03.223Z,91.93
2018-06-24T05:34:43.794Z,91.83
2018-06-24T05:35:24.330Z,91.64
2018-06-24T05:36:04.892Z,91.93
2018-06-24T05:36:45.454Z,91.78
2018-06-24T05:37:26.026Z,91.64
2018-06-24T05:38:06.580Z,91.74
2018-06-24T05:38:47.140Z,91.54
2018-06-24T05:39:27.693Z,91.35
2018-06-24T05:40:08.273Z,91.06
2018-06-24T05:40:48.832Z,91.16
2018-06-24T05:41:29.411Z,91.25
2018-06-24T05:42:09.975Z,91.16
2018-06-24T05:42:50.544Z,91.25
2018-06-24T05:43:31.102Z,91.06
2018-06-24T05:44:11.720Z,90.78
2018-06-24T05:44:52.299Z,90.97
2018-06-24T05:45:32.855Z,91.06
2018-06-24T05:46:13.402Z,90.97
2018-06-24T05:46:53.968Z,91.25
2018-06-24T05:47:34.524Z,91.45
2018-06-24T05:48:15.094Z,91.35
2018-06-24T05:48:55.646Z,91.64
2018-06-24T05:49:36.191Z,91.45
2018-06-24T05:50:16.744Z,91.74
2018-06-24T05:50:57.278Z,91.93
2018-06-24T05:51:37.856Z,91.93
2018-06-24T05:52:18.406Z,92.02
2018-06-24T05:52:58.965Z,91.74
2018-06-24T05:53:39.509Z,92.02
2018-06-24T05:54:20.131Z,91.45
2018-06-24T05:55:00.602Z,91.83
2018-06-24T05:55:41.135Z,90.97
2018-06-24T05:56:21.703Z,90.88
2018-06-24T05:57:02.278Z,90.78
2018-06-24T05:57:42.851Z,90.88
2018-06-24T05:58:23.413Z,91.35
2018-06-24T05:59:03.953Z,91.16
2018-06-24T05:59:44.517Z,91.25
2018-06-24T06:00:25.073Z,91.25
2018-06-24T06:01:05.633Z,91.16
2018-06-24T06:01:46.245Z,91.25
2018-06-24T06:02:26.770Z,91.35
2018-06-24T06:03:07.357Z,91.16
2018-06-24T06:03:47.994Z,91.06
2018-06-24T06:04:28.652Z,91.16
2018-06-24T06:05:09.162Z,91.16
2018-06-24T06:05:49.724Z,91.64
2018-06-24T06:06:30.299Z,91.54
2018-06-24T06:07:10.926Z,91.64
2018-06-24T06:07:51.499Z,91.68
2018-06-24T06:08:32.050Z,91.35
2018-06-24T06:09:12.630Z,91.35
2018-06-24T06:09:53.205Z,91.74
2018-06-24T06:10:33.742Z,91.88
2018-06-24T06:11:14.304Z,91.2
2018-06-24T06:11:54.851Z,91.88
2018-06-24T06:12:35.420Z,91.39
2018-06-24T06:13:15.961Z,91.11
2018-06-24T06:13:56.515Z,90.82
2018-06-24T06:14:37.081Z,91.25
2018-06-24T06:15:17.650Z,91.02
2018-06-24T06:15:58.220Z,91.06
2018-06-24T06:16:38.826Z,91.02
2018-06-24T06:17:19.380Z,91.2
2018-06-24T06:17:59.940Z,91.11
2018-06-24T06:18:40.487Z,91.39
2018-06-24T06:19:21.041Z,90.59
2018-06-24T06:20:01.615Z,90.53
2018-06-24T06:20:42.178Z,90.97
2018-06-24T06:21:22.731Z,90.92
2018-06-24T06:22:03.302Z,90.92
2018-06-24T06:22:43.880Z,90.92
2018-06-24T06:23:24.420Z,90.92
2018-06-24T06:24:04.971Z,90.53
2018-06-24T06:24:45.539Z,90.82
2018-06-24T06:25:26.076Z,90.73
2018-06-24T06:26:06.637Z,90.34
2018-06-24T06:26:47.197Z,90.3
2018-06-24T06:27:27.730Z,90.44
2018-06-24T06:28:08.277Z,90.44
2018-06-24T06:28:48.844Z,90.53
2018-06-24T06:29:29.427Z,89.96
2018-06-24T06:30:10.060Z,89.58
2018-06-24T06:30:50.536Z,90.06
2018-06-24T06:31:31.240Z,89.73
2018-06-24T06:32:11.781Z,90.2
2018-06-24T06:32:52.331Z,90.11
2018-06-24T06:33:32.881Z,90.01
2018-06-24T06:34:13.429Z,90.16
2018-06-24T06:34:53.986Z,90.63
2018-06-24T06:35:34.562Z,90.01
2018-06-24T06:36:15.165Z,90.34
2018-06-24T06:36:55.722Z,89.58
2018-06-24T06:37:36.412Z,89.53
2018-06-24T06:38:16.962Z,90.3
2018-06-24T06:38:57.548Z,89.82
2018-06-24T06:39:38.174Z,90.11
2018-06-24T06:40:18.743Z,89.73
2018-06-24T06:40:59.306Z,89.53
2018-06-24T06:41:39.924Z,90.3
2018-06-24T06:42:20.504Z,90.39
2018-06-24T06:43:01.038Z,90.59
2018-06-24T06:43:41.586Z,90.39
2018-06-24T06:44:22.148Z,90.97
2018-06-24T06:45:02.834Z,91.16
2018-06-24T06:45:43.590Z,91.16
2018-06-24T06:46:23.856Z,91.2
2018-06-24T06:47:04.436Z,91.39
2018-06-24T06:47:45.016Z,91.74
2018-06-24T06:48:25.631Z,91.25
2018-06-24T06:49:06.219Z,91.3
2018-06-24T06:49:46.798Z,92.07
2018-06-24T06:50:27.383Z,91.68
2018-06-24T06:51:08.011Z,91.88
2018-06-24T06:51:48.538Z,91.68
2018-06-24T06:52:29.205Z,91.78
2018-06-24T06:53:09.746Z,91.49
2018-06-24T06:53:50.414Z,91.39
2018-06-24T06:54:30.957Z,92.07
2018-06-24T06:55:11.501Z,91.68
2018-06-24T06:55:52.086Z,91.49
2018-06-24T06:56:32.606Z,91.97
2018-06-24T06:57:13.200Z,91.39
2018-06-24T06:57:53.786Z,91.78
2018-06-24T06:58:34.435Z,91.78
2018-06-24T06:59:15.031Z,91.78
2018-06-24T06:59:55.604Z,91.68
2018-06-24T07:00:36.163Z,92.25
2018-06-24T07:01:16.840Z,92.54
2018-06-24T07:01:57.454Z,92.35
2018-06-24T07:02:38.078Z,92.74
2018-06-24T07:03:18.638Z,92.54
2018-06-24T07:03:59.348Z,92.25
2018-06-24T07:04:39.945Z,92.74
2018-06-24T07:05:20.581Z,92.35
2018-06-24T07:06:01.194Z,92.35
2018-06-24T07:06:41.796Z,92.45
2018-06-24T07:07:22.356Z,92.54
2018-06-24T07:08:02.978Z,92.45
2018-06-24T07:08:43.621Z,92.74
2018-06-24T07:09:24.296Z,92.74
2018-06-24T07:10:04.845Z,93.6
2018-06-24T07:10:45.490Z,92.93
2018-06-24T07:11:26.015Z,92.64
2018-06-24T07:12:06.769Z,92.16
2018-06-24T07:12:47.592Z,92.35
2018-06-24T07:13:28.176Z,91.78
2018-06-24T07:14:08.805Z,92.45
2018-06-24T07:14:49.356Z,92.16
2018-06-24T07:15:29.920Z,92.74
2018-06-24T07:16:10.562Z,92.83
2018-06-24T07:16:51.171Z,92.25
2018-06-24T07:17:31.763Z,93.12
2018-06-24T07:18:12.362Z,92.83
2018-06-24T07:18:52.908Z,92.93
2018-06-24T07:19:33.664Z,92.45
2018-06-24T07:20:14.329Z,92.74
2018-06-24T07:20:54.925Z,92.45
2018-06-24T07:21:35.422Z,92.54
2018-06-24T07:22:16.024Z,92.54
2018-06-24T07:22:56.673Z,93.12
2018-06-24T07:23:37.267Z,92.64
2018-06-24T07:24:17.891Z,93.02
2018-06-24T07:24:58.370Z,93.4
2018-06-24T07:25:39.055Z,93.4
2018-06-24T07:26:19.518Z,93.4
2018-06-24T07:27:00.091Z,93.12
2018-06-24T07:27:40.722Z,93.31
2018-06-24T07:28:21.345Z,92.74
2018-06-24T07:29:01.944Z,92.83
2018-06-24T07:29:42.647Z,92.74
2018-06-24T07:30:23.210Z,92.64
2018-06-24T07:31:03.821Z,92.74
2018-06-24T07:31:44.454Z,93.4
2018-06-24T07:32:25.328Z,93.5
2018-06-24T07:33:06.037Z,92.93
2018-06-24T07:33:47.143Z,93.02
2018-06-24T07:34:27.745Z,93.02
2018-06-24T07:35:08.375Z,92.93
2018-06-24T07:35:49.080Z,92.64
2018-06-24T07:36:29.953Z,92.74
2018-06-24T07:37:10.694Z,93.12
2018-06-24T07:37:51.253Z,93.4
2018-06-24T07:38:32.061Z,93.21
2018-06-24T07:39:12.923Z,93.31
2018-06-24T07:39:53.791Z,93.5
2018-06-24T07:40:34.709Z,93.12
2018-06-24T07:41:15.317Z,93.4
2018-06-24T07:41:56.075Z,93.12
2018-06-24T07:42:36.844Z,93.21
2018-06-24T07:43:17.425Z,93.02
2018-06-24T07:43:58.130Z,93.12
2018-06-24T07:44:38.679Z,92.45
2018-06-24T07:45:19.281Z,92.45
2018-06-24T07:45:59.835Z,92.74
2018-06-24T07:46:40.383Z,92.74
2018-06-24T07:47:20.936Z,92.54
2018-06-24T07:48:01.570Z,92.83
2018-06-24T07:48:42.147Z,92.93
2018-06-24T07:49:22.766Z,93.4
2018-06-24T07:50:03.335Z,93.12
2018-06-24T07:50:44.249Z,93.31
2018-06-24T07:51:24.946Z,93.4
2018-06-24T07:52:05.584Z,92.93
2018-06-24T07:52:49.896Z,93.21
2018-06-24T07:53:29.997Z,93.31
2018-06-24T07:54:10.541Z,93.02
2018-06-24T07:54:51.657Z,93.26
2018-06-24T07:55:32.777Z,91.92
2018-06-24T07:56:13.319Z,92.11
2018-06-24T07:56:53.929Z,91.35
2018-06-24T07:57:34.513Z,91.06
2018-06-24T07:58:15.209Z,90.39
2018-06-24T07:58:55.762Z,90.39
2018-06-24T07:59:36.677Z,90.67
2018-06-24T08:00:17.288Z,90.77
2018-06-24T08:00:57.858Z,90.2
2018-06-24T08:01:38.424Z,89.86
2018-06-24T08:02:19.553Z,89.67
2018-06-24T08:03:00.269Z,89.67
2018-06-24T08:03:40.943Z,89.48
2018-06-24T08:04:21.578Z,89.09
2018-06-24T08:05:02.187Z,88.52
2018-06-24T08:05:42.897Z,88.71
2018-06-24T08:06:24.805Z,88.04
2018-06-24T08:07:05.572Z,87.76
2018-06-24T08:07:46.208Z,87.8
2018-06-24T08:08:26.746Z,87.56
2018-06-24T08:09:07.312Z,87.32
2018-06-24T08:09:47.966Z,87.41
2018-06-24T08:10:28.526Z,86.46
2018-06-24T08:11:09.330Z,86.08
2018-06-24T08:11:50.021Z,86.04
2018-06-24T08:12:30.583Z,86.61
2018-06-24T08:13:11.173Z,87.27
2018-06-24T08:13:51.949Z,86.99
2018-06-24T08:14:32.546Z,86.8
2018-06-24T08:15:14.384Z,87.47
2018-06-24T08:15:55.264Z,87.47
2018-06-24T08:16:36.153Z,86.99
2018-06-24T08:17:16.775Z,86.9
2018-06-24T08:17:57.836Z,87.47
2018-06-24T08:18:39.613Z,87.04
2018-06-24T08:19:20.249Z,87.37
2018-06-24T08:20:01.346Z,88.04
2018-06-24T08:20:43.364Z,88.48
2018-06-24T08:21:27.401Z,88.48
2018-06-24T08:22:08.219Z,88.38
2018-06-24T08:22:48.818Z,88.86
2018-06-24T08:23:29.429Z,88.95
2018-06-24T08:24:09.900Z,89.43
2018-06-24T08:24:50.432Z,89.91
2018-06-24T08:25:30.997Z,89.43
2018-06-24T08:26:11.578Z,90.1
2018-06-24T08:26:52.182Z,90.01
2018-06-24T08:27:32.737Z,90.1
2018-06-24T08:28:13.349Z,90.2
2018-06-24T08:28:53.909Z,90.1
2018-06-24T08:29:34.456Z,90.39
2018-06-24T08:30:15.039Z,90.87
2018-06-24T08:30:55.611Z,90.01
2018-06-24T08:31:36.265Z,90.1
2018-06-24T08:32:16.707Z,90.77
2018-06-24T08:32:57.294Z,90.67
2018-06-24T08:33:37.830Z,90.58
2018-06-24T08:34:18.424Z,90.67
2018-06-24T08:34:58.973Z,90.1
2018-06-24T08:35:39.615Z,90.2
2018-06-24T08:36:20.307Z,90.01
2018-06-24T08:37:00.880Z,90.2
2018-06-24T08:37:41.476Z,90.1
2018-06-24T08:38:22.041Z,90.67
2018-06-24T08:39:02.582Z,89.96
2018-06-24T08:39:43.109Z,90.3
2018-06-24T08:40:23.682Z,89.81
2018-06-24T08:41:04.228Z,90.3
2018-06-24T08:41:44.786Z,90.87
2018-06-24T08:42:25.363Z,90.77
2018-06-24T08:43:05.996Z,90.48
2018-06-24T08:43:46.541Z,90.67
2018-06-24T08:44:27.158Z,90.3
2018-06-24T08:45:07.725Z,90.39